createdAt,value
2018-01-20T00:00:56.819Z,1.40
2018-01-20T00:03:32.029Z,1.50
2018-01-20T00:06:02.297Z,1.50
2018-01-20T00:08:33.292Z,1.50
2018-01-20T00:11:14.536Z,1.60
2018-01-20T00:13:46.173Z,1.50
2018-01-20T00:16:16.368Z,1.50
2018-01-20T00:18:47.413Z,1.50
2018-01-20T00:21:18.341Z,1.50
2018-01-20T00:23:49.250Z,1.60
2018-01-20T00:26:23.533Z,1.60
2018-01-20T00:28:53.700Z,1.60
2018-01-20T00:31:24.187Z,1.60
2018-01-20T00:33:54.639Z,1.50
2018-01-20T00:36:25.050Z,1.60
2018-01-20T00:38:55.276Z,1.70
2018-01-20T00:41:25.749Z,1.70
2018-01-20T00:43:56.727Z,1.60
2018-01-20T00:46:26.900Z,1.60
2018-01-20T00:48:57.288Z,1.70
2018-01-20T00:51:27.416Z,1.60
2018-01-20T00:53:57.645Z,1.60
2018-01-20T00:56:27.841Z,1.70
2018-01-20T00:58:58.109Z,1.60
2018-01-20T01:01:29.321Z,1.50
2018-01-20T01:04:00.541Z,1.40
2018-01-20T01:06:30.755Z,1.40
2018-01-20T01:09:01.057Z,1.40
2018-01-20T01:11:31.565Z,1.30
2018-01-20T01:14:01.797Z,1.30
2018-01-20T01:16:32.758Z,1.40
2018-01-20T01:19:02.968Z,1.40
2018-01-20T01:21:33.832Z,1.50
2018-01-20T01:24:04.329Z,1.50
2018-01-20T01:26:34.732Z,1.50
2018-01-20T01:29:04.889Z,1.50
2018-01-20T01:31:35.212Z,1.60
2018-01-20T01:34:05.892Z,1.60
2018-01-20T01:36:36.615Z,1.60
2018-01-20T01:39:06.846Z,1.70
2018-01-20T01:41:37.360Z,1.70
2018-01-20T01:44:07.916Z,1.60
2018-01-20T01:46:38.961Z,1.70
2018-01-20T01:49:09.992Z,1.60
2018-01-20T01:51:40.663Z,1.60
2018-01-20T01:54:11.342Z,1.60
2018-01-20T01:56:42.534Z,1.60
2018-01-20T01:59:13.311Z,1.50
2018-01-20T02:01:43.959Z,1.50
2018-01-20T02:04:14.330Z,1.50
2018-01-20T02:06:45.230Z,1.50
2018-01-20T02:09:16.482Z,1.40
2018-01-20T02:11:46.906Z,1.30
2018-01-20T02:14:17.382Z,1.30
2018-01-20T02:16:47.787Z,1.30
2018-01-20T02:19:18.392Z,1.30
2018-01-20T02:21:49.051Z,1.20
2018-01-20T02:24:19.500Z,1.20
2018-01-20T02:26:50.700Z,1.40
2018-01-20T02:29:21.094Z,1.30
2018-01-20T02:31:51.456Z,1.40
2018-01-20T02:34:22.307Z,1.40
2018-01-20T02:36:52.906Z,1.40
2018-01-20T02:39:23.295Z,1.40
2018-01-20T02:41:55.219Z,1.40
2018-01-20T02:44:25.457Z,1.40
2018-01-20T02:46:55.781Z,1.40
2018-01-20T02:49:26.681Z,1.40
2018-01-20T02:51:57.059Z,1.40
2018-01-20T02:54:27.377Z,1.50
2018-01-20T02:56:57.930Z,1.50
2018-01-20T02:59:28.444Z,1.40
2018-01-20T03:01:58.719Z,1.40
2018-01-20T03:04:29.456Z,1.50
2018-01-20T03:07:00.100Z,1.40
2018-01-20T03:09:30.512Z,1.40
2018-01-20T03:12:01.241Z,1.50
2018-01-20T03:14:31.510Z,1.50
2018-01-20T03:17:01.665Z,1.50
2018-01-20T03:19:32.693Z,1.40
2018-01-20T03:22:03.641Z,1.50
2018-01-20T03:24:33.869Z,1.50
2018-01-20T03:27:04.528Z,1.50
2018-01-20T03:29:34.721Z,1.50
2018-01-20T03:32:04.864Z,1.50
2018-01-20T03:34:35.761Z,1.50
2018-01-20T03:37:10.485Z,1.50
2018-01-20T03:39:42.076Z,1.60
2018-01-20T03:42:12.664Z,1.50
2018-01-20T03:44:43.601Z,1.60
2018-01-20T03:47:13.958Z,1.60
2018-01-20T03:49:44.290Z,1.60
2018-01-20T03:52:14.946Z,1.60
2018-01-20T03:54:45.293Z,1.70
2018-01-20T03:57:16.231Z,1.70
2018-01-20T03:59:47.862Z,1.60
2018-01-20T04:02:18.362Z,1.60
2018-01-20T04:04:48.801Z,1.70
2018-01-20T04:07:19.263Z,1.60
2018-01-20T04:09:50.200Z,1.70
2018-01-20T04:12:20.752Z,1.70
2018-01-20T04:14:51.238Z,1.70
2018-01-20T04:17:21.694Z,1.80
2018-01-20T04:19:52.657Z,1.70
2018-01-20T04:22:22.878Z,1.70
2018-01-20T04:24:53.384Z,1.60
2018-01-20T04:27:24.121Z,1.70
2018-01-20T04:29:54.463Z,1.70
2018-01-20T04:32:25.343Z,1.70
2018-01-20T04:34:56.106Z,1.60
2018-01-20T04:37:26.675Z,1.50
2018-01-20T04:39:56.937Z,1.50
2018-01-20T04:42:27.557Z,1.50
2018-01-20T04:44:57.739Z,1.50
2018-01-20T04:47:27.962Z,1.50
2018-01-20T04:49:58.910Z,1.50
2018-01-20T04:52:29.101Z,1.50
2018-01-20T04:54:59.669Z,1.50
2018-01-20T04:57:30.304Z,1.60
2018-01-20T05:00:00.511Z,1.60
2018-01-20T05:02:31.964Z,1.50
2018-01-20T05:05:03.051Z,1.50
2018-01-20T05:07:34.064Z,1.50
2018-01-20T05:10:05.024Z,1.50
2018-01-20T05:12:42.925Z,1.50
2018-01-20T05:15:13.537Z,1.50
2018-01-20T05:17:43.912Z,1.50
2018-01-20T05:20:15.336Z,1.50
2018-01-20T05:22:45.603Z,1.40
2018-01-20T05:25:15.836Z,1.50
2018-01-20T05:27:47.376Z,1.40
2018-01-20T05:30:17.643Z,1.40
2018-01-20T05:32:48.727Z,1.50
2018-01-20T05:35:19.436Z,1.50
2018-01-20T05:37:49.787Z,1.50
2018-01-20T05:40:21.248Z,1.50
2018-01-20T05:42:52.293Z,1.50
2018-01-20T05:45:24.646Z,1.50
2018-01-20T05:47:56.889Z,1.50
2018-01-20T05:50:27.388Z,1.50
2018-01-20T05:52:57.622Z,1.50
2018-01-20T05:55:28.692Z,1.50
2018-01-20T05:57:59.139Z,1.50
2018-01-20T06:00:29.557Z,1.60
2018-01-20T06:03:00.015Z,1.60
2018-01-20T06:05:30.210Z,1.60
2018-01-20T06:08:00.513Z,1.60
2018-01-20T06:10:30.845Z,1.60
2018-01-20T06:13:01.225Z,1.60
2018-01-20T06:15:31.801Z,1.60
2018-01-20T06:18:02.107Z,1.60
2018-01-20T06:20:32.330Z,1.60
2018-01-20T06:23:02.617Z,1.70
2018-01-20T06:25:33.774Z,1.80
2018-01-20T06:28:04.285Z,1.70
2018-01-20T06:30:34.658Z,1.80
2018-01-20T06:33:05.249Z,1.80
2018-01-20T06:35:37.209Z,1.80
2018-01-20T06:38:07.385Z,1.90
2018-01-20T06:40:39.873Z,1.80
2018-01-20T06:43:11.477Z,1.80
2018-01-20T06:45:41.844Z,1.90
2018-01-20T06:48:12.477Z,1.80
2018-01-20T06:50:43.144Z,1.80
2018-01-20T06:53:13.581Z,1.80
2018-01-20T06:55:44.123Z,1.70
2018-01-20T06:58:14.771Z,1.80
2018-01-20T07:00:45.868Z,1.80
2018-01-20T07:03:16.134Z,1.70
2018-01-20T07:05:46.378Z,1.80
2018-01-20T07:08:16.604Z,1.80
2018-01-20T07:10:48.095Z,1.80
2018-01-20T07:13:47.191Z,1.80
2018-01-20T07:16:30.753Z,1.90
2018-01-20T07:19:01.171Z,1.90
2018-01-20T07:21:33.036Z,1.80
2018-01-20T07:24:06.057Z,1.90
2018-01-20T07:26:43.441Z,1.80
2018-01-20T07:29:15.200Z,1.90
2018-01-20T07:31:46.864Z,1.80
2018-01-20T07:34:20.461Z,1.80
2018-01-20T07:36:51.267Z,1.80
2018-01-20T07:39:23.176Z,1.80
2018-01-20T07:41:54.716Z,1.80
2018-01-20T07:44:24.917Z,1.80
2018-01-20T07:47:03.117Z,1.90
2018-01-20T07:49:33.717Z,1.80
2018-01-20T07:52:04.650Z,1.80
2018-01-20T07:54:35.134Z,1.80
2018-01-20T07:57:08.931Z,1.90
2018-01-20T07:59:45.113Z,1.90
2018-01-20T08:02:16.912Z,2.00
2018-01-20T08:04:49.234Z,1.90
2018-01-20T08:07:20.277Z,1.90
2018-01-20T08:09:51.872Z,1.90
2018-01-20T08:12:22.178Z,1.90
2018-01-20T08:14:52.696Z,1.90
2018-01-20T08:17:22.956Z,2.00
2018-01-20T08:19:54.243Z,2.00
2018-01-20T08:22:25.120Z,2.10
2018-01-20T08:24:55.417Z,2.10
2018-01-20T08:27:25.888Z,2.00
2018-01-20T08:29:56.056Z,2.00
2018-01-20T08:32:26.506Z,1.80
2018-01-20T08:34:56.736Z,1.70
2018-01-20T08:37:27.182Z,1.80
2018-01-20T08:39:57.705Z,1.80
2018-01-20T08:42:28.513Z,1.80
2018-01-20T08:44:58.990Z,1.80
2018-01-20T08:47:30.327Z,1.90
2018-01-20T08:50:01.808Z,2.00
2018-01-20T08:52:32.080Z,2.00
2018-01-20T08:55:02.475Z,2.00
2018-01-20T08:57:33.565Z,2.00
2018-01-20T09:00:04.032Z,2.00
2018-01-20T09:02:34.465Z,2.10
2018-01-20T09:05:05.092Z,2.00
2018-01-20T09:07:36.073Z,2.00
2018-01-20T09:10:06.326Z,2.00
2018-01-20T09:12:36.987Z,2.00
2018-01-20T09:15:07.246Z,2.00
2018-01-20T09:17:37.473Z,1.90
2018-01-20T09:20:08.092Z,2.00
2018-01-20T09:22:38.352Z,2.10
2018-01-20T09:25:09.576Z,2.00
2018-01-20T09:27:40.220Z,2.00
2018-01-20T09:30:10.535Z,2.10
2018-01-20T09:32:42.494Z,2.30
2018-01-20T09:35:12.629Z,2.30
2018-01-20T09:37:43.129Z,2.30
2018-01-20T09:40:13.757Z,2.20
2018-01-20T09:42:45.431Z,2.40
2018-01-20T09:45:15.848Z,2.40
2018-01-20T09:47:47.086Z,2.50
2018-01-20T09:50:17.743Z,2.50
2018-01-20T09:52:48.860Z,2.30
2018-01-20T09:55:19.281Z,2.20
2018-01-20T09:57:50.161Z,2.40
2018-01-20T10:00:21.292Z,2.50
2018-01-20T10:02:51.796Z,2.40
2018-01-20T10:05:23.536Z,2.60
2018-01-20T10:07:54.075Z,2.60
2018-01-20T10:10:25.206Z,2.60
2018-01-20T10:12:55.980Z,2.60
2018-01-20T10:15:28.951Z,2.50
2018-01-20T10:18:00.693Z,2.50
2018-01-20T10:20:31.260Z,2.50
2018-01-20T10:23:04.120Z,2.60
2018-01-20T10:25:37.583Z,2.50
2018-01-20T10:28:09.958Z,2.50
2018-01-20T10:30:40.833Z,2.60
2018-01-20T10:33:12.472Z,2.70
2018-01-20T10:35:42.932Z,2.70
2018-01-20T10:38:14.225Z,2.80
2018-01-20T10:40:45.524Z,2.60
2018-01-20T10:43:16.154Z,2.50
2018-01-20T10:45:46.753Z,2.50
2018-01-20T10:48:17.572Z,2.40
2018-01-20T10:50:48.902Z,2.60
2018-01-20T10:53:19.347Z,2.50
2018-01-20T10:55:49.826Z,2.60
2018-01-20T10:58:20.597Z,2.50
2018-01-20T11:00:52.105Z,2.70
2018-01-20T11:03:22.689Z,2.60
2018-01-20T11:05:54.186Z,2.60
2018-01-20T11:08:24.762Z,2.60
2018-01-20T11:10:55.433Z,2.80
2018-01-20T11:13:27.871Z,3.10
2018-01-20T11:15:58.407Z,3.00
2018-01-20T11:18:29.625Z,3.20
2018-01-20T11:21:00.049Z,3.20
2018-01-20T11:23:30.379Z,3.30
2018-01-20T11:26:01.664Z,3.20
2018-01-20T11:28:32.262Z,3.10
2018-01-20T11:31:02.533Z,3.00
2018-01-20T11:33:33.621Z,3.10
2018-01-20T11:36:03.887Z,3.10
2018-01-20T11:38:35.820Z,3.00
2018-01-20T11:41:06.857Z,3.00
2018-01-20T11:43:37.285Z,3.00
2018-01-20T11:46:07.464Z,3.30
2018-01-20T11:48:37.759Z,3.40
2018-01-20T11:51:08.369Z,3.40
2018-01-20T11:53:38.978Z,3.30
2018-01-20T11:56:10.210Z,3.10
2018-01-20T11:58:41.726Z,3.20
2018-01-20T12:01:12.869Z,3.20
2018-01-20T12:03:43.646Z,3.20
2018-01-20T12:06:14.231Z,3.20
2018-01-20T12:08:44.657Z,3.20
2018-01-20T12:11:15.091Z,3.10
2018-01-20T12:13:45.443Z,3.10
2018-01-20T12:16:15.908Z,3.20
2018-01-20T12:18:46.979Z,3.00
2018-01-20T12:21:17.351Z,3.00
2018-01-20T12:27:11.212Z,3.10
2018-01-20T12:29:41.878Z,3.30
2018-01-20T12:32:12.263Z,3.40
2018-01-20T12:34:42.815Z,3.50
2018-01-20T12:37:13.531Z,3.50
2018-01-20T12:39:44.056Z,3.50
2018-01-20T12:42:14.437Z,3.50
2018-01-20T12:44:45.113Z,3.50
2018-01-20T12:47:15.356Z,3.60
2018-01-20T12:49:45.706Z,3.60
2018-01-20T12:52:17.249Z,3.60
2018-01-20T12:54:47.526Z,3.60
2018-01-20T12:57:20.808Z,3.50
2018-01-20T12:59:51.344Z,3.60
2018-01-20T13:02:21.700Z,3.60
2018-01-20T13:04:52.174Z,3.70
2018-01-20T13:07:23.131Z,3.50
2018-01-20T13:09:54.089Z,3.50
2018-01-20T13:12:25.477Z,3.50
2018-01-20T13:14:56.513Z,3.60
2018-01-20T13:17:27.525Z,3.70
2018-01-20T13:19:58.117Z,3.70
2018-01-20T13:22:28.529Z,3.50
2018-01-20T13:24:59.583Z,3.70
2018-01-20T13:27:30.124Z,3.70
2018-01-20T13:30:00.363Z,3.70
2018-01-20T13:32:32.669Z,3.50
2018-01-20T13:35:03.150Z,3.50
2018-01-20T13:37:33.384Z,3.50
2018-01-20T13:40:10.148Z,3.40
2018-01-20T13:42:41.759Z,3.40
2018-01-20T13:45:17.110Z,3.60
2018-01-20T13:47:47.429Z,3.70
2018-01-20T13:50:17.993Z,3.70
2018-01-20T13:52:48.358Z,3.60
2018-01-20T13:55:18.681Z,3.70
2018-01-20T13:57:49.046Z,3.80
2018-01-20T14:00:19.556Z,3.70
2018-01-20T14:02:50.035Z,3.80
2018-01-20T14:05:20.655Z,3.80
2018-01-20T14:07:52.818Z,3.80
2018-01-20T14:10:24.494Z,3.80
2018-01-20T14:12:55.453Z,3.60
2018-01-20T14:15:27.090Z,3.70
2018-01-20T14:17:58.849Z,3.60
2018-01-20T14:20:30.305Z,3.50
2018-01-20T14:23:00.746Z,3.50
2018-01-20T14:25:40.284Z,3.50
2018-01-20T14:28:11.011Z,3.50
2018-01-20T14:30:41.510Z,3.50
2018-01-20T14:33:11.841Z,3.50
2018-01-20T14:35:42.174Z,3.50
2018-01-20T14:38:12.897Z,3.50
2018-01-20T14:40:43.477Z,3.50
2018-01-20T14:43:13.777Z,3.50
2018-01-20T14:45:46.147Z,3.20
2018-01-20T14:48:17.621Z,3.10
2018-01-20T14:50:48.801Z,3.20
2018-01-20T14:53:19.251Z,3.30
2018-01-20T14:55:50.704Z,3.30
2018-01-20T14:58:21.208Z,3.30
2018-01-20T15:00:51.616Z,3.30
2018-01-20T15:03:22.018Z,3.30
2018-01-20T15:05:52.572Z,3.30
2018-01-20T15:08:22.898Z,3.30
2018-01-20T15:10:57.561Z,3.30
2018-01-20T15:13:28.658Z,3.40
2018-01-20T15:16:01.623Z,3.30
2018-01-20T15:18:32.702Z,3.30
2018-01-20T15:21:03.132Z,3.20
2018-01-20T15:23:33.492Z,3.20
2018-01-20T15:26:07.880Z,3.20
2018-01-20T15:28:38.457Z,3.10
2018-01-20T15:31:09.165Z,3.20
2018-01-20T15:33:39.865Z,3.20
2018-01-20T15:36:13.787Z,3.20
2018-01-20T15:38:47.372Z,3.20
2018-01-20T15:41:18.052Z,3.20
2018-01-20T15:43:58.525Z,3.20
2018-01-20T15:46:37.002Z,3.20
2018-01-20T15:49:13.883Z,3.20
2018-01-20T15:51:47.026Z,3.20
2018-01-20T15:54:19.504Z,3.10
2018-01-20T15:56:52.604Z,3.10
2018-01-20T15:59:24.880Z,3.10
2018-01-20T16:01:55.514Z,3.10
2018-01-20T16:04:26.832Z,3.00
2018-01-20T16:06:57.381Z,3.00
2018-01-20T16:09:27.844Z,3.00
2018-01-20T16:11:59.856Z,3.00
2018-01-20T16:14:30.435Z,3.00
2018-01-20T16:17:00.995Z,3.00
2018-01-20T16:19:32.010Z,3.00
2018-01-20T16:22:03.279Z,2.90
2018-01-20T16:24:33.633Z,2.90
2018-01-20T16:27:04.485Z,2.90
2018-01-20T16:29:35.986Z,2.90
2018-01-20T16:32:11.068Z,2.90
2018-01-20T16:34:45.120Z,2.90
2018-01-20T16:37:16.120Z,2.90
2018-01-20T16:39:46.744Z,2.90
2018-01-20T16:42:17.621Z,2.90
2018-01-20T16:44:49.230Z,2.90
2018-01-20T16:47:21.076Z,2.90
2018-01-20T16:49:52.382Z,2.90
2018-01-20T16:52:24.055Z,2.90
2018-01-20T16:54:58.443Z,2.90
2018-01-20T16:57:28.818Z,3.00
2018-01-20T16:59:59.950Z,2.90
2018-01-20T17:02:30.347Z,2.90
2018-01-20T17:05:00.664Z,3.00
2018-01-20T17:07:31.158Z,3.00
2018-01-20T17:10:01.653Z,3.00
2018-01-20T17:12:31.950Z,3.00
2018-01-20T17:15:02.424Z,3.00
2018-01-20T17:17:32.755Z,3.00
2018-01-20T17:20:03.012Z,2.90
2018-01-20T17:22:34.229Z,2.90
2018-01-20T17:25:04.392Z,2.90
2018-01-20T17:27:34.977Z,2.90
2018-01-20T17:30:05.206Z,2.90
2018-01-20T17:32:36.140Z,2.90
2018-01-20T17:35:06.661Z,2.90
2018-01-20T17:37:36.920Z,2.90
2018-01-20T17:40:07.199Z,2.90
2018-01-20T17:42:37.817Z,2.90
2018-01-20T17:45:10.000Z,2.90
2018-01-20T17:47:40.339Z,2.80
2018-01-20T17:50:10.802Z,2.80
2018-01-20T17:52:41.044Z,2.90
2018-01-20T17:55:11.440Z,2.80
2018-01-20T17:57:41.989Z,2.80
2018-01-20T18:00:12.998Z,2.70
2018-01-20T18:02:43.196Z,2.70
2018-01-20T18:05:13.354Z,2.70
2018-01-20T18:07:43.534Z,2.70
2018-01-20T18:10:13.734Z,2.70
2018-01-20T18:12:44.143Z,2.70
2018-01-20T18:15:14.353Z,2.70
2018-01-20T18:17:44.525Z,2.70
2018-01-20T18:20:14.998Z,2.60
2018-01-20T18:22:45.249Z,2.60
2018-01-20T18:25:15.385Z,2.60
2018-01-20T18:27:45.843Z,2.60
2018-01-20T18:30:16.839Z,2.50
2018-01-20T18:32:47.471Z,2.50
2018-01-20T18:35:17.729Z,2.50
2018-01-20T18:37:47.994Z,2.50
2018-01-20T18:40:18.177Z,2.50
2018-01-20T18:42:48.852Z,2.40
2018-01-20T18:45:19.046Z,2.40
2018-01-20T18:47:49.249Z,2.30
2018-01-20T18:50:19.737Z,2.30
2018-01-20T18:52:49.990Z,2.30
2018-01-20T18:55:20.945Z,2.10
2018-01-20T18:57:51.084Z,2.10
2018-01-20T19:00:22.066Z,2.10
2018-01-20T19:02:53.363Z,2.00
2018-01-20T19:05:23.572Z,2.00
2018-01-20T19:07:53.750Z,1.80
2018-01-20T19:10:25.023Z,1.90
2018-01-20T19:12:55.373Z,1.90
2018-01-20T19:15:25.672Z,1.90
2018-01-20T19:17:56.245Z,1.90
2018-01-20T19:20:26.549Z,1.90
2018-01-20T19:24:11.096Z,1.80
2018-01-20T19:26:41.342Z,1.80
2018-01-20T19:29:12.726Z,1.70
2018-01-20T19:31:43.653Z,1.60
2018-01-20T19:34:13.988Z,1.60
2018-01-20T19:36:45.290Z,1.50
2018-01-20T19:39:15.497Z,1.50
2018-01-20T19:41:45.641Z,1.50
2018-01-20T19:44:15.804Z,1.40
2018-01-20T19:46:46.749Z,1.40
2018-01-20T19:49:18.085Z,1.30
2018-01-20T19:51:49.052Z,1.30
2018-01-20T19:54:19.309Z,1.30
2018-01-20T19:56:49.470Z,1.30
2018-01-20T19:59:20.522Z,1.30
2018-01-20T20:01:50.897Z,1.20
2018-01-20T20:04:21.486Z,1.30
2018-01-20T20:06:51.832Z,1.30
2018-01-20T20:09:26.001Z,1.30
2018-01-20T20:11:56.628Z,1.30
2018-01-20T20:14:26.786Z,1.40
2018-01-20T20:16:56.971Z,1.40
2018-01-20T20:19:27.605Z,1.30
2018-01-20T20:21:57.797Z,1.40
2018-01-20T20:24:28.093Z,1.30
2018-01-20T20:26:59.003Z,1.40
2018-01-20T20:29:29.165Z,1.40
2018-01-20T20:31:59.410Z,1.40
2018-01-20T20:34:30.698Z,1.40
2018-01-20T20:37:00.873Z,1.40
2018-01-20T20:39:32.741Z,1.40
2018-01-20T20:42:03.825Z,1.40
2018-01-20T20:44:34.144Z,1.30
2018-01-20T20:47:04.423Z,1.30
2018-01-20T20:49:35.696Z,1.30
2018-01-20T20:52:06.049Z,1.30
2018-01-20T20:54:36.457Z,1.30
2018-01-20T20:57:07.084Z,1.20
2018-01-20T20:59:38.241Z,1.20
2018-01-20T21:02:09.181Z,1.20
2018-01-20T21:04:39.734Z,1.30
2018-01-20T21:07:09.965Z,1.30
2018-01-20T21:09:40.949Z,1.40
2018-01-20T21:12:11.249Z,1.30
2018-01-20T21:14:41.485Z,1.40
2018-01-20T21:17:12.524Z,1.40
2018-01-20T21:19:43.077Z,1.40
2018-01-20T21:22:13.460Z,1.50
2018-01-20T21:24:43.750Z,1.50
2018-01-20T21:27:14.351Z,1.50
2018-01-20T21:29:45.534Z,1.50
2018-01-20T21:32:15.833Z,1.50
2018-01-20T21:34:46.036Z,1.50
2018-01-20T21:37:16.246Z,1.50
2018-01-20T21:40:01.633Z,1.50
2018-01-20T21:42:32.912Z,1.50
2018-01-20T21:45:03.764Z,1.40
2018-01-20T21:47:34.876Z,1.40
2018-01-20T21:50:07.401Z,1.30
2018-01-20T21:52:38.042Z,1.30
2018-01-20T21:55:08.349Z,1.30
2018-01-20T21:57:38.954Z,1.20
2018-01-20T22:00:10.805Z,1.10
2018-01-20T22:02:41.189Z,1.10
2018-01-20T22:05:11.821Z,1.10
2018-01-20T22:07:42.406Z,1.10
2018-01-20T22:10:12.680Z,1.10
2018-01-20T22:12:43.260Z,1.00
2018-01-20T22:15:14.301Z,1.00
2018-01-20T22:17:44.956Z,1.00
2018-01-20T22:20:15.849Z,1.00
2018-01-20T22:22:46.109Z,1.00
2018-01-20T22:25:16.381Z,1.00
2018-01-20T22:27:46.892Z,1.00
2018-01-20T22:30:17.176Z,1.00
2018-01-20T22:32:47.385Z,1.00
2018-01-20T22:35:18.410Z,0.90
2018-01-20T22:37:49.446Z,0.90
2018-01-20T22:40:20.777Z,0.90
2018-01-20T22:42:53.625Z,0.90
2018-01-20T22:45:23.798Z,0.90
2018-01-20T22:47:54.770Z,0.80
2018-01-20T22:50:31.641Z,0.80
2018-01-20T22:53:05.270Z,0.70
2018-01-20T22:55:37.788Z,0.70
2018-01-20T22:58:08.591Z,0.70
2018-01-20T23:00:44.280Z,0.60
2018-01-20T23:03:25.241Z,0.60
2018-01-20T23:05:55.958Z,0.60
2018-01-20T23:08:26.413Z,0.60
2018-01-20T23:10:57.530Z,0.60
2018-01-20T23:13:28.794Z,0.60
2018-01-20T23:16:00.087Z,0.60
2018-01-20T23:18:30.338Z,0.60
2018-01-20T23:21:01.412Z,0.60
2018-01-20T23:23:32.092Z,0.60
2018-01-20T23:26:02.321Z,0.60
2018-01-20T23:28:32.548Z,0.60
2018-01-20T23:31:02.729Z,0.60
2018-01-20T23:33:33.005Z,0.60
2018-01-20T23:36:04.034Z,0.70
2018-01-20T23:38:34.667Z,0.70
2018-01-20T23:41:04.938Z,0.80
2018-01-20T23:43:35.240Z,0.80
2018-01-20T23:46:06.801Z,0.90
2018-01-20T23:48:36.991Z,0.90
2018-01-20T23:51:07.224Z,1.00
2018-01-20T23:53:37.958Z,1.00
2018-01-20T23:56:08.956Z,1.10
2018-01-20T23:58:39.193Z,1.10
